New Prague, MN

4:50 PM CST on December 06, 2016 (GMT -0600)
Second Street SW | | Change Station

Elev 997 ft 44.54 °N, 93.58 °W | Updated 22 seconds ago

Light Snow
Light Snow
21.4 °F
Feels Like 13 °F
N
6.3
Wind Variable Wind from SSW

Today
High -- | Low -- °F
--% Chance of Precip.
Yesterday
High -- | Low -- °F
Precip. -- in
Pressure 29.74 in
Visibility 10.0 miles
Clouds Scattered Clouds 2800 ft
Overcast 3300 ft
Windchill 13 °F
Dew Point 15 °F
Humidity 77%
Rainfall 0.00 in
Snow Depth Not available.
7:36 AM 4:34 PM
Waxing Crescent, 46% visible
METAR KLVN 062233Z AUTO 26015G26KT 10SM -SN SCT028 OVC033 M06/M09 A2974 RMK AO2
Pressure 29.74 in
Visibility 10.0 miles
Clouds Scattered Clouds 2800 ft
Overcast 3300 ft
Windchill 13 °F
Dew Point 15 °F
Humidity 77%
Rainfall 0.00 in
Snow Depth Not available.
7:36 AM 4:34 PM
Waxing Crescent, 46% visible
METAR KLVN 062233Z AUTO 26015G26KT 10SM -SN SCT028 OVC033 M06/M09 A2974 RMK AO2

10-Day Weather Forecast

Almanac

Astronomy

Dec. 06, 2016 Rise Set
Actual Time
Civil Twilight
Nautical Twilight
Astronomical Twilight
Moon
Length of Visible Light
Length of Day
Tomorrow will be .
, % of the Moon is Illuminated

Today's Extremes

State Highs State Lows

Community

WunderPhotos

Upload Photos

1,956,042 photos uploaded!

WunderBlog® & News

Nearby

Air Quality

  Air Quality AQ Index Pollutant
Not available.

Snow Depth

Station Depth Elevation

Earthquake Activity

City Distance Mag. Time & Date
Minimum magnitude displayed is 2.5.

Coastal Water Temperatures

Place Temperature

Stations

Nearby Weather Stations

Station Location Temp. Windchill Dew Point Humidity Wind Precip. Elev Updated Type
                   

Watches & Warnings

There are currently no watches in effect.